sensor_id;sensor_type;location;lat;lon;timestamp;temperature;humidity
59855;DHT22;45732;52.850;6.896;2022-11-15T00:00:25;8.30;99.90
59855;DHT22;45732;52.850;6.896;2022-11-15T00:02:52;8.40;99.90
59855;DHT22;45732;52.850;6.896;2022-11-15T00:05:18;8.40;99.90
59855;DHT22;45732;52.850;6.896;2022-11-15T00:07:44;8.30;99.90
59855;DHT22;45732;52.850;6.896;2022-11-15T00:10:10;8.30;99.90
59855;DHT22;45732;52.850;6.896;2022-11-15T00:12:35;8.30;99.90
59855;DHT22;45732;52.850;6.896;2022-11-15T00:15:01;8.30;99.90
59855;DHT22;45732;52.850;6.896;2022-11-15T00:17:27;8.30;99.90
59855;DHT22;45732;52.850;6.896;2022-11-15T00:19:52;8.30;99.90
59855;DHT22;45732;52.850;6.896;2022-11-15T00:22:18;8.40;99.90
59855;DHT22;45732;52.850;6.896;2022-11-15T00:24:44;8.40;99.90
59855;DHT22;45732;52.850;6.896;2022-11-15T00:27:09;8.50;99.90
59855;DHT22;45732;52.850;6.896;2022-11-15T00:29:35;8.50;99.90
59855;DHT22;45732;52.850;6.896;2022-11-15T00:32:03;8.50;99.90
59855;DHT22;45732;52.850;6.896;2022-11-15T00:34:28;8.60;99.90
59855;DHT22;45732;52.850;6.896;2022-11-15T00:36:54;8.60;99.90
59855;DHT22;45732;52.850;6.896;2022-11-15T00:39:20;8.60;99.90
59855;DHT22;45732;52.850;6.896;2022-11-15T00:41:45;8.60;99.90
59855;DHT22;45732;52.850;6.896;2022-11-15T00:44:11;8.60;99.90
59855;DHT22;45732;52.850;6.896;2022-11-15T00:46:37;8.60;99.90
59855;DHT22;45732;52.850;6.896;2022-11-15T00:49:02;8.70;99.90
59855;DHT22;45732;52.850;6.896;2022-11-15T00:51:28;8.70;99.90
59855;DHT22;45732;52.850;6.896;2022-11-15T00:53:54;8.70;99.90
59855;DHT22;45732;52.850;6.896;2022-11-15T00:56:19;8.70;99.90
59855;DHT22;45732;52.850;6.896;2022-11-15T00:58:45;8.70;99.90
59855;DHT22;45732;52.850;6.896;2022-11-15T01:01:13;8.70;99.90
59855;DHT22;45732;52.850;6.896;2022-11-15T01:03:40;8.80;99.90
59855;DHT22;45732;52.850;6.896;2022-11-15T01:06:07;8.70;99.90
59855;DHT22;45732;52.850;6.896;2022-11-15T01:08:33;8.80;99.90
59855;DHT22;45732;52.850;6.896;2022-11-15T01:11:08;8.80;99.90
59855;DHT22;45732;52.850;6.896;2022-11-15T01:13:36;8.80;99.90
59855;DHT22;45732;52.850;6.896;2022-11-15T01:16:13;8.80;99.90
59855;DHT22;45732;52.850;6.896;2022-11-15T01:18:39;8.80;99.90
59855;DHT22;45732;52.850;6.896;2022-11-15T01:21:06;8.80;99.90
59855;DHT22;45732;52.850;6.896;2022-11-15T01:23:33;8.80;99.90
59855;DHT22;45732;52.850;6.896;2022-11-15T01:26:00;8.80;99.90
59855;DHT22;45732;52.850;6.896;2022-11-15T01:28:33;8.90;99.90
59855;DHT22;45732;52.850;6.896;2022-11-15T01:31:00;8.80;99.90
59855;DHT22;45732;52.850;6.896;2022-11-15T01:33:27;8.90;99.90
59855;DHT22;45732;52.850;6.896;2022-11-15T01:35:54;8.80;99.90
59855;DHT22;45732;52.850;6.896;2022-11-15T01:38:19;8.90;99.90
59855;DHT22;45732;52.850;6.896;2022-11-15T01:40:45;8.90;99.90
59855;DHT22;45732;52.850;6.896;2022-11-15T01:43:24;8.90;99.90
59855;DHT22;45732;52.850;6.896;2022-11-15T01:45:58;8.90;99.90
59855;DHT22;45732;52.850;6.896;2022-11-15T01:48:30;8.90;99.90
59855;DHT22;45732;52.850;6.896;2022-11-15T01:50:57;9.00;99.90
59855;DHT22;45732;52.850;6.896;2022-11-15T01:53:24;9.00;99.90
59855;DHT22;45732;52.850;6.896;2022-11-15T01:55:51;8.90;99.90
59855;DHT22;45732;52.850;6.896;2022-11-15T01:58:17;8.90;99.90
59855;DHT22;45732;52.850;6.896;2022-11-15T02:00:43;8.90;99.90
59855;DHT22;45732;52.850;6.896;2022-11-15T02:03:09;9.00;99.90
59855;DHT22;45732;52.850;6.896;2022-11-15T02:05:35;8.90;99.90
59855;DHT22;45732;52.850;6.896;2022-11-15T02:08:01;9.00;99.90
59855;DHT22;45732;52.850;6.896;2022-11-15T02:10:28;9.00;99.90
59855;DHT22;45732;52.850;6.896;2022-11-15T02:12:54;9.00;99.90
59855;DHT22;45732;52.850;6.896;2022-11-15T02:15:22;9.00;99.90
59855;DHT22;45732;52.850;6.896;2022-11-15T02:18:22;9.00;99.90
59855;DHT22;45732;52.850;6.896;2022-11-15T02:32:11;9.00;99.90
59855;DHT22;45732;52.850;6.896;2022-11-15T02:34:44;9.00;99.90
59855;DHT22;45732;52.850;6.896;2022-11-15T02:37:48;9.00;99.90
59855;DHT22;45732;52.850;6.896;2022-11-15T02:43:10;9.00;99.90
59855;DHT22;45732;52.850;6.896;2022-11-15T02:46:13;9.00;99.90
59855;DHT22;45732;52.850;6.896;2022-11-15T02:48:41;9.10;99.90
59855;DHT22;45732;52.850;6.896;2022-11-15T02:51:08;9.00;99.90
59855;DHT22;45732;52.850;6.896;2022-11-15T02:53:35;9.10;99.90
59855;DHT22;45732;52.850;6.896;2022-11-15T02:56:01;9.10;99.90
59855;DHT22;45732;52.850;6.896;2022-11-15T02:58:48;9.00;99.90
59855;DHT22;45732;52.850;6.896;2022-11-15T03:01:56;9.10;99.90
59855;DHT22;45732;52.850;6.896;2022-11-15T03:07:12;9.10;99.90
59855;DHT22;45732;52.850;6.896;2022-11-15T03:12:56;9.10;99.90
59855;DHT22;45732;52.850;6.896;2022-11-15T03:15:36;9.10;99.90
59855;DHT22;45732;52.850;6.896;2022-11-15T03:18:10;9.10;99.90
59855;DHT22;45732;52.850;6.896;2022-11-15T03:20:37;9.10;99.90
59855;DHT22;45732;52.850;6.896;2022-11-15T03:23:07;9.10;99.90
59855;DHT22;45732;52.850;6.896;2022-11-15T03:25:36;9.10;99.90
59855;DHT22;45732;52.850;6.896;2022-11-15T03:28:04;9.20;99.90
59855;DHT22;45732;52.850;6.896;2022-11-15T03:30:32;9.20;99.90
59855;DHT22;45732;52.850;6.896;2022-11-15T03:33:00;9.20;99.90
59855;DHT22;45732;52.850;6.896;2022-11-15T03:35:30;9.20;99.90
59855;DHT22;45732;52.850;6.896;2022-11-15T03:38:16;9.20;99.90
59855;DHT22;45732;52.850;6.896;2022-11-15T03:40:58;9.20;99.90
59855;DHT22;45732;52.850;6.896;2022-11-15T03:43:44;9.20;99.90
59855;DHT22;45732;52.850;6.896;2022-11-15T03:46:19;9.20;99.90
59855;DHT22;45732;52.850;6.896;2022-11-15T03:48:53;9.20;99.90
59855;DHT22;45732;52.850;6.896;2022-11-15T03:51:20;9.20;99.90
59855;DHT22;45732;52.850;6.896;2022-11-15T03:53:46;9.20;99.90
59855;DHT22;45732;52.850;6.896;2022-11-15T03:56:11;9.20;99.90
59855;DHT22;45732;52.850;6.896;2022-11-15T03:58:37;9.20;99.90
59855;DHT22;45732;52.850;6.896;2022-11-15T04:01:03;9.20;99.90
59855;DHT22;45732;52.850;6.896;2022-11-15T04:03:28;9.30;99.90
59855;DHT22;45732;52.850;6.896;2022-11-15T04:05:54;9.30;99.90
59855;DHT22;45732;52.850;6.896;2022-11-15T04:08:20;9.30;99.90
59855;DHT22;45732;52.850;6.896;2022-11-15T04:10:48;9.30;99.90
59855;DHT22;45732;52.850;6.896;2022-11-15T04:13:14;9.30;99.90
59855;DHT22;45732;52.850;6.896;2022-11-15T04:15:40;9.30;99.90
59855;DHT22;45732;52.850;6.896;2022-11-15T04:18:05;9.30;99.90
59855;DHT22;45732;52.850;6.896;2022-11-15T04:20:31;9.30;99.90
59855;DHT22;45732;52.850;6.896;2022-11-15T04:26:04;9.40;99.90
59855;DHT22;45732;52.850;6.896;2022-11-15T04:28:30;9.30;99.90
59855;DHT22;45732;52.850;6.896;2022-11-15T04:30:56;9.30;99.90
59855;DHT22;45732;52.850;6.896;2022-11-15T04:33:22;9.40;99.90
59855;DHT22;45732;52.850;6.896;2022-11-15T04:35:48;9.40;99.90
59855;DHT22;45732;52.850;6.896;2022-11-15T04:38:35;9.40;99.90
59855;DHT22;45732;52.850;6.896;2022-11-15T04:41:01;9.40;99.90
59855;DHT22;45732;52.850;6.896;2022-11-15T04:43:27;9.40;99.90
59855;DHT22;45732;52.850;6.896;2022-11-15T04:45:53;9.40;99.90
59855;DHT22;45732;52.850;6.896;2022-11-15T04:48:18;9.50;99.90
59855;DHT22;45732;52.850;6.896;2022-11-15T04:50:44;9.50;99.90
59855;DHT22;45732;52.850;6.896;2022-11-15T04:53:10;9.50;99.90
59855;DHT22;45732;52.850;6.896;2022-11-15T04:55:35;9.50;99.90
59855;DHT22;45732;52.850;6.896;2022-11-15T04:58:02;9.50;99.90
59855;DHT22;45732;52.850;6.896;2022-11-15T05:00:29;9.50;99.90
59855;DHT22;45732;52.850;6.896;2022-11-15T05:02:55;9.60;99.90
59855;DHT22;45732;52.850;6.896;2022-11-15T05:05:40;9.60;99.90
59855;DHT22;45732;52.850;6.896;2022-11-15T05:08:06;9.60;99.90
59855;DHT22;45732;52.850;6.896;2022-11-15T05:10:31;9.60;99.90
59855;DHT22;45732;52.850;6.896;2022-11-15T05:12:57;9.60;99.90
59855;DHT22;45732;52.850;6.896;2022-11-15T05:15:23;9.60;99.90
59855;DHT22;45732;52.850;6.896;2022-11-15T05:17:48;9.70;99.90
59855;DHT22;45732;52.850;6.896;2022-11-15T05:20:14;9.60;99.90
59855;DHT22;45732;52.850;6.896;2022-11-15T05:22:40;9.70;99.90
59855;DHT22;45732;52.850;6.896;2022-11-15T05:25:07;9.70;99.90
59855;DHT22;45732;52.850;6.896;2022-11-15T05:27:33;9.70;99.90
59855;DHT22;45732;52.850;6.896;2022-11-15T05:29:59;9.70;99.90
59855;DHT22;45732;52.850;6.896;2022-11-15T05:32:25;9.80;99.90
59855;DHT22;45732;52.850;6.896;2022-11-15T05:34:54;9.70;99.90
59855;DHT22;45732;52.850;6.896;2022-11-15T05:37:20;9.70;99.90
59855;DHT22;45732;52.850;6.896;2022-11-15T05:39:45;9.80;99.90
59855;DHT22;45732;52.850;6.896;2022-11-15T05:42:15;9.80;99.90
59855;DHT22;45732;52.850;6.896;2022-11-15T05:44:44;9.80;99.90
59855;DHT22;45732;52.850;6.896;2022-11-15T05:47:20;9.80;99.90
59855;DHT22;45732;52.850;6.896;2022-11-15T05:49:48;9.80;99.90
59855;DHT22;45732;52.850;6.896;2022-11-15T05:52:17;9.90;99.90
59855;DHT22;45732;52.850;6.896;2022-11-15T05:54:43;9.90;99.90
59855;DHT22;45732;52.850;6.896;2022-11-15T05:57:09;9.90;99.90
59855;DHT22;45732;52.850;6.896;2022-11-15T05:59:35;9.90;99.90
59855;DHT22;45732;52.850;6.896;2022-11-15T06:02:01;9.90;99.90
59855;DHT22;45732;52.850;6.896;2022-11-15T06:04:27;9.90;99.90
59855;DHT22;45732;52.850;6.896;2022-11-15T06:06:53;10.00;99.90
59855;DHT22;45732;52.850;6.896;2022-11-15T06:09:18;10.00;99.90
59855;DHT22;45732;52.850;6.896;2022-11-15T06:11:44;10.00;99.90
59855;DHT22;45732;52.850;6.896;2022-11-15T06:14:10;10.00;99.90
59855;DHT22;45732;52.850;6.896;2022-11-15T06:16:35;10.00;99.90
59855;DHT22;45732;52.850;6.896;2022-11-15T06:19:01;10.10;99.90
59855;DHT22;45732;52.850;6.896;2022-11-15T06:21:27;10.10;99.90
59855;DHT22;45732;52.850;6.896;2022-11-15T06:23:55;10.10;99.90
59855;DHT22;45732;52.850;6.896;2022-11-15T06:26:21;10.10;99.90
59855;DHT22;45732;52.850;6.896;2022-11-15T06:28:46;10.20;99.90
59855;DHT22;45732;52.850;6.896;2022-11-15T06:31:12;10.20;99.90
59855;DHT22;45732;52.850;6.896;2022-11-15T06:33:39;10.30;99.90
59855;DHT22;45732;52.850;6.896;2022-11-15T06:36:07;10.20;99.90
59855;DHT22;45732;52.850;6.896;2022-11-15T06:38:34;10.30;99.90
59855;DHT22;45732;52.850;6.896;2022-11-15T06:41:05;10.30;99.90
59855;DHT22;45732;52.850;6.896;2022-11-15T06:43:32;10.30;99.90
59855;DHT22;45732;52.850;6.896;2022-11-15T06:45:58;10.30;99.90
59855;DHT22;45732;52.850;6.896;2022-11-15T06:48:25;10.40;99.90
59855;DHT22;45732;52.850;6.896;2022-11-15T06:50:55;10.40;99.90
59855;DHT22;45732;52.850;6.896;2022-11-15T06:53:22;10.40;99.90
59855;DHT22;45732;52.850;6.896;2022-11-15T06:55:48;10.40;99.90
59855;DHT22;45732;52.850;6.896;2022-11-15T06:58:13;10.50;99.90
59855;DHT22;45732;52.850;6.896;2022-11-15T07:00:39;10.50;99.90
59855;DHT22;45732;52.850;6.896;2022-11-15T07:03:05;10.50;99.90
59855;DHT22;45732;52.850;6.896;2022-11-15T07:05:31;10.50;99.90
59855;DHT22;45732;52.850;6.896;2022-11-15T07:07:58;10.50;99.90
59855;DHT22;45732;52.850;6.896;2022-11-15T07:10:24;10.60;99.90
59855;DHT22;45732;52.850;6.896;2022-11-15T07:12:54;10.50;99.90
59855;DHT22;45732;52.850;6.896;2022-11-15T07:15:25;10.50;99.90
59855;DHT22;45732;52.850;6.896;2022-11-15T07:17:51;10.60;99.90
59855;DHT22;45732;52.850;6.896;2022-11-15T07:20:17;10.60;99.90
59855;DHT22;45732;52.850;6.896;2022-11-15T07:22:44;10.60;99.90
59855;DHT22;45732;52.850;6.896;2022-11-15T07:25:12;10.60;99.90
59855;DHT22;45732;52.850;6.896;2022-11-15T07:27:38;10.60;99.90
59855;DHT22;45732;52.850;6.896;2022-11-15T07:30:04;10.60;99.90
59855;DHT22;45732;52.850;6.896;2022-11-15T07:32:30;10.60;99.90
59855;DHT22;45732;52.850;6.896;2022-11-15T07:34:56;10.60;99.90
59855;DHT22;45732;52.850;6.896;2022-11-15T07:37:22;10.60;99.90
59855;DHT22;45732;52.850;6.896;2022-11-15T07:39:47;10.70;99.90
59855;DHT22;45732;52.850;6.896;2022-11-15T07:42:13;10.70;99.90
59855;DHT22;45732;52.850;6.896;2022-11-15T07:44:57;10.70;99.90
59855;DHT22;45732;52.850;6.896;2022-11-15T07:47:23;10.70;99.90
59855;DHT22;45732;52.850;6.896;2022-11-15T07:49:48;10.70;99.90
59855;DHT22;45732;52.850;6.896;2022-11-15T07:52:14;10.70;99.90
59855;DHT22;45732;52.850;6.896;2022-11-15T07:54:40;10.80;99.90
59855;DHT22;45732;52.850;6.896;2022-11-15T07:57:06;10.80;99.90
59855;DHT22;45732;52.850;6.896;2022-11-15T07:59:32;10.80;99.90
59855;DHT22;45732;52.850;6.896;2022-11-15T08:02:00;10.80;99.90
59855;DHT22;45732;52.850;6.896;2022-11-15T08:04:26;10.90;99.90
59855;DHT22;45732;52.850;6.896;2022-11-15T08:06:51;10.80;99.90
59855;DHT22;45732;52.850;6.896;2022-11-15T08:09:17;10.90;99.90
59855;DHT22;45732;52.850;6.896;2022-11-15T08:11:42;10.90;99.90
59855;DHT22;45732;52.850;6.896;2022-11-15T08:14:08;10.90;99.90
59855;DHT22;45732;52.850;6.896;2022-11-15T08:16:34;11.00;99.90
59855;DHT22;45732;52.850;6.896;2022-11-15T08:18:59;11.00;99.90
59855;DHT22;45732;52.850;6.896;2022-11-15T08:21:25;11.00;99.90
59855;DHT22;45732;52.850;6.896;2022-11-15T08:23:51;11.00;99.90
59855;DHT22;45732;52.850;6.896;2022-11-15T08:26:17;11.10;99.90
59855;DHT22;45732;52.850;6.896;2022-11-15T08:28:42;11.10;99.90
59855;DHT22;45732;52.850;6.896;2022-11-15T08:31:14;11.10;99.90
59855;DHT22;45732;52.850;6.896;2022-11-15T08:33:42;11.10;99.90
59855;DHT22;45732;52.850;6.896;2022-11-15T08:36:15;11.10;99.90
59855;DHT22;45732;52.850;6.896;2022-11-15T08:38:41;11.20;99.90
59855;DHT22;45732;52.850;6.896;2022-11-15T08:41:09;11.20;99.90
59855;DHT22;45732;52.850;6.896;2022-11-15T08:43:35;11.20;99.90
59855;DHT22;45732;52.850;6.896;2022-11-15T08:46:01;11.30;99.90
59855;DHT22;45732;52.850;6.896;2022-11-15T08:48:27;11.30;99.90
59855;DHT22;45732;52.850;6.896;2022-11-15T08:50:56;11.30;99.90
59855;DHT22;45732;52.850;6.896;2022-11-15T08:53:23;11.20;99.90
59855;DHT22;45732;52.850;6.896;2022-11-15T08:55:48;11.30;99.90
59855;DHT22;45732;52.850;6.896;2022-11-15T08:58:14;11.30;99.90
59855;DHT22;45732;52.850;6.896;2022-11-15T09:00:40;11.30;99.90
59855;DHT22;45732;52.850;6.896;2022-11-15T09:03:06;11.30;99.90
59855;DHT22;45732;52.850;6.896;2022-11-15T09:05:32;11.20;99.90
59855;DHT22;45732;52.850;6.896;2022-11-15T09:08:00;11.30;99.90
59855;DHT22;45732;52.850;6.896;2022-11-15T09:10:26;11.30;99.90
59855;DHT22;45732;52.850;6.896;2022-11-15T09:12:52;11.30;99.90
59855;DHT22;45732;52.850;6.896;2022-11-15T09:15:17;11.30;99.90
59855;DHT22;45732;52.850;6.896;2022-11-15T09:17:44;11.30;99.90
59855;DHT22;45732;52.850;6.896;2022-11-15T09:20:10;11.30;99.90
59855;DHT22;45732;52.850;6.896;2022-11-15T09:22:35;11.30;99.90
59855;DHT22;45732;52.850;6.896;2022-11-15T09:25:03;11.30;99.90
59855;DHT22;45732;52.850;6.896;2022-11-15T09:27:29;11.40;99.90
59855;DHT22;45732;52.850;6.896;2022-11-15T09:29:55;11.40;99.90
59855;DHT22;45732;52.850;6.896;2022-11-15T09:32:21;11.40;99.90
59855;DHT22;45732;52.850;6.896;2022-11-15T09:34:49;11.40;99.90
59855;DHT22;45732;52.850;6.896;2022-11-15T09:37:14;11.40;99.90
59855;DHT22;45732;52.850;6.896;2022-11-15T09:39:40;11.40;99.90
59855;DHT22;45732;52.850;6.896;2022-11-15T09:42:38;11.50;99.90
59855;DHT22;45732;52.850;6.896;2022-11-15T09:45:28;11.50;99.90
59855;DHT22;45732;52.850;6.896;2022-11-15T09:48:03;11.50;99.90
59855;DHT22;45732;52.850;6.896;2022-11-15T09:50:43;11.50;99.90
59855;DHT22;45732;52.850;6.896;2022-11-15T09:53:15;11.50;99.90
59855;DHT22;45732;52.850;6.896;2022-11-15T09:56:05;11.50;99.90
59855;DHT22;45732;52.850;6.896;2022-11-15T09:58:39;11.50;99.90
59855;DHT22;45732;52.850;6.896;2022-11-15T10:01:14;11.50;99.90
59855;DHT22;45732;52.850;6.896;2022-11-15T10:03:42;11.50;99.90
59855;DHT22;45732;52.850;6.896;2022-11-15T10:06:21;11.60;99.90
59855;DHT22;45732;52.850;6.896;2022-11-15T10:11:19;11.60;99.90
59855;DHT22;45732;52.850;6.896;2022-11-15T10:13:48;11.60;99.90
59855;DHT22;45732;52.850;6.896;2022-11-15T10:21:44;11.60;99.90
59855;DHT22;45732;52.850;6.896;2022-11-15T10:24:13;11.60;99.90
59855;DHT22;45732;52.850;6.896;2022-11-15T10:26:47;11.60;99.90
59855;DHT22;45732;52.850;6.896;2022-11-15T10:29:19;11.60;99.90
59855;DHT22;45732;52.850;6.896;2022-11-15T10:31:45;11.60;99.90
59855;DHT22;45732;52.850;6.896;2022-11-15T10:34:15;11.60;99.90
59855;DHT22;45732;52.850;6.896;2022-11-15T10:37:00;11.70;99.90
59855;DHT22;45732;52.850;6.896;2022-11-15T10:39:27;11.70;99.90
59855;DHT22;45732;52.850;6.896;2022-11-15T10:41:53;11.70;99.90
59855;DHT22;45732;52.850;6.896;2022-11-15T10:44:30;11.70;99.90
59855;DHT22;45732;52.850;6.896;2022-11-15T10:49:23;11.70;99.90
59855;DHT22;45732;52.850;6.896;2022-11-15T10:51:59;11.80;99.90
59855;DHT22;45732;52.850;6.896;2022-11-15T10:54:37;11.80;99.90
59855;DHT22;45732;52.850;6.896;2022-11-15T10:57:10;11.80;99.90
59855;DHT22;45732;52.850;6.896;2022-11-15T10:59:37;11.90;99.90
59855;DHT22;45732;52.850;6.896;2022-11-15T11:05:31;12.00;99.90
59855;DHT22;45732;52.850;6.896;2022-11-15T11:08:22;12.00;99.90
59855;DHT22;45732;52.850;6.896;2022-11-15T11:10:53;12.00;99.90
59855;DHT22;45732;52.850;6.896;2022-11-15T11:13:27;12.00;99.90
59855;DHT22;45732;52.850;6.896;2022-11-15T11:18:31;12.10;99.90
59855;DHT22;45732;52.850;6.896;2022-11-15T11:21:04;12.20;99.90
59855;DHT22;45732;52.850;6.896;2022-11-15T11:23:45;12.20;99.90
59855;DHT22;45732;52.850;6.896;2022-11-15T11:29:28;12.20;99.90
59855;DHT22;45732;52.850;6.896;2022-11-15T11:48:42;12.20;99.90
59855;DHT22;45732;52.850;6.896;2022-11-15T11:51:18;12.20;99.90
59855;DHT22;45732;52.850;6.896;2022-11-15T11:54:11;12.20;99.90
59855;DHT22;45732;52.850;6.896;2022-11-15T11:56:40;12.20;99.90
59855;DHT22;45732;52.850;6.896;2022-11-15T11:59:31;12.20;99.90
59855;DHT22;45732;52.850;6.896;2022-11-15T12:02:09;12.20;99.90
59855;DHT22;45732;52.850;6.896;2022-11-15T12:04:40;12.20;99.90
59855;DHT22;45732;52.850;6.896;2022-11-15T12:07:17;12.20;99.90
59855;DHT22;45732;52.850;6.896;2022-11-15T12:09:53;12.20;99.90
59855;DHT22;45732;52.850;6.896;2022-11-15T12:12:50;12.20;99.90
59855;DHT22;45732;52.850;6.896;2022-11-15T12:15:23;12.20;99.90
59855;DHT22;45732;52.850;6.896;2022-11-15T12:17:49;12.20;99.90
59855;DHT22;45732;52.850;6.896;2022-11-15T12:20:21;12.20;99.90
59855;DHT22;45732;52.850;6.896;2022-11-15T12:22:56;12.20;99.90
59855;DHT22;45732;52.850;6.896;2022-11-15T12:31:03;12.20;99.90
59855;DHT22;45732;52.850;6.896;2022-11-15T12:33:37;12.20;99.90
59855;DHT22;45732;52.850;6.896;2022-11-15T12:36:09;12.20;99.90
59855;DHT22;45732;52.850;6.896;2022-11-15T12:41:21;12.30;99.90
59855;DHT22;45732;52.850;6.896;2022-11-15T12:43:48;12.30;99.90
59855;DHT22;45732;52.850;6.896;2022-11-15T12:59:57;12.50;99.90
59855;DHT22;45732;52.850;6.896;2022-11-15T13:22:51;12.60;99.90
59855;DHT22;45732;52.850;6.896;2022-11-15T13:33:33;12.70;99.90
59855;DHT22;45732;52.850;6.896;2022-11-15T13:36:06;12.70;99.90
59855;DHT22;45732;52.850;6.896;2022-11-15T13:38:35;12.60;99.90
59855;DHT22;45732;52.850;6.896;2022-11-15T13:41:20;12.70;99.90
59855;DHT22;45732;52.850;6.896;2022-11-15T13:43:47;12.60;99.90
59855;DHT22;45732;52.850;6.896;2022-11-15T13:46:25;12.60;99.90
59855;DHT22;45732;52.850;6.896;2022-11-15T13:48:58;12.60;99.90
59855;DHT22;45732;52.850;6.896;2022-11-15T13:51:48;12.60;99.90
59855;DHT22;45732;52.850;6.896;2022-11-15T13:54:26;12.60;99.90
59855;DHT22;45732;52.850;6.896;2022-11-15T13:57:00;12.50;99.90
59855;DHT22;45732;52.850;6.896;2022-11-15T13:59:31;12.50;99.90
59855;DHT22;45732;52.850;6.896;2022-11-15T14:02:01;12.60;99.90
59855;DHT22;45732;52.850;6.896;2022-11-15T14:04:29;12.50;99.90
59855;DHT22;45732;52.850;6.896;2022-11-15T14:06:57;12.60;99.90
59855;DHT22;45732;52.850;6.896;2022-11-15T14:09:38;12.50;99.90
59855;DHT22;45732;52.850;6.896;2022-11-15T14:14:59;12.50;99.90
59855;DHT22;45732;52.850;6.896;2022-11-15T14:19:54;12.50;99.90
59855;DHT22;45732;52.850;6.896;2022-11-15T14:22:30;12.50;99.90
59855;DHT22;45732;52.850;6.896;2022-11-15T14:25:18;12.40;99.90
59855;DHT22;45732;52.850;6.896;2022-11-15T14:30:34;12.40;99.90
59855;DHT22;45732;52.850;6.896;2022-11-15T14:33:00;12.30;99.90
59855;DHT22;45732;52.850;6.896;2022-11-15T14:35:26;12.40;99.90
59855;DHT22;45732;52.850;6.896;2022-11-15T14:37:52;12.30;99.90
59855;DHT22;45732;52.850;6.896;2022-11-15T14:40:20;12.30;99.90
59855;DHT22;45732;52.850;6.896;2022-11-15T14:42:47;12.30;99.90
59855;DHT22;45732;52.850;6.896;2022-11-15T14:45:18;12.30;99.90
59855;DHT22;45732;52.850;6.896;2022-11-15T14:47:44;12.20;99.90
59855;DHT22;45732;52.850;6.896;2022-11-15T14:50:17;12.20;99.90
59855;DHT22;45732;52.850;6.896;2022-11-15T14:52:43;12.20;99.90
59855;DHT22;45732;52.850;6.896;2022-11-15T14:55:26;12.10;99.90
59855;DHT22;45732;52.850;6.896;2022-11-15T14:57:54;12.10;99.90
59855;DHT22;45732;52.850;6.896;2022-11-15T15:00:20;12.10;99.90
59855;DHT22;45732;52.850;6.896;2022-11-15T15:02:47;12.00;99.90
59855;DHT22;45732;52.850;6.896;2022-11-15T15:05:22;12.00;99.90
59855;DHT22;45732;52.850;6.896;2022-11-15T15:07:49;12.00;99.90
59855;DHT22;45732;52.850;6.896;2022-11-15T15:10:16;11.90;99.90
59855;DHT22;45732;52.850;6.896;2022-11-15T15:12:42;11.90;99.90
59855;DHT22;45732;52.850;6.896;2022-11-15T15:15:23;11.90;99.90
59855;DHT22;45732;52.850;6.896;2022-11-15T15:17:49;11.90;99.90
59855;DHT22;45732;52.850;6.896;2022-11-15T15:20:15;11.80;99.90
59855;DHT22;45732;52.850;6.896;2022-11-15T15:22:41;11.80;99.90
59855;DHT22;45732;52.850;6.896;2022-11-15T15:25:33;11.80;99.90
59855;DHT22;45732;52.850;6.896;2022-11-15T15:27:59;11.70;99.90
59855;DHT22;45732;52.850;6.896;2022-11-15T15:30:27;11.70;99.90
59855;DHT22;45732;52.850;6.896;2022-11-15T15:32:53;11.70;99.90
59855;DHT22;45732;52.850;6.896;2022-11-15T15:35:19;11.60;99.90
59855;DHT22;45732;52.850;6.896;2022-11-15T15:37:47;11.60;99.90
59855;DHT22;45732;52.850;6.896;2022-11-15T15:40:17;11.50;99.90
59855;DHT22;45732;52.850;6.896;2022-11-15T15:42:43;11.50;99.90
59855;DHT22;45732;52.850;6.896;2022-11-15T15:45:09;11.50;99.90
59855;DHT22;45732;52.850;6.896;2022-11-15T15:47:35;11.50;99.90
59855;DHT22;45732;52.850;6.896;2022-11-15T15:50:02;11.50;99.90
59855;DHT22;45732;52.850;6.896;2022-11-15T15:52:27;11.40;99.90
59855;DHT22;45732;52.850;6.896;2022-11-15T15:54:53;11.50;99.90
59855;DHT22;45732;52.850;6.896;2022-11-15T15:57:19;11.40;99.90
59855;DHT22;45732;52.850;6.896;2022-11-15T15:59:44;11.40;99.90
59855;DHT22;45732;52.850;6.896;2022-11-15T16:02:13;11.40;99.90
59855;DHT22;45732;52.850;6.896;2022-11-15T16:04:39;11.30;99.90
59855;DHT22;45732;52.850;6.896;2022-11-15T16:07:05;11.30;99.90
59855;DHT22;45732;52.850;6.896;2022-11-15T16:09:37;11.20;99.90
59855;DHT22;45732;52.850;6.896;2022-11-15T16:12:21;11.20;99.90
59855;DHT22;45732;52.850;6.896;2022-11-15T16:14:47;11.20;99.90
59855;DHT22;45732;52.850;6.896;2022-11-15T16:17:18;11.20;99.90
59855;DHT22;45732;52.850;6.896;2022-11-15T16:19:45;11.20;99.90
59855;DHT22;45732;52.850;6.896;2022-11-15T16:22:11;11.30;99.90
59855;DHT22;45732;52.850;6.896;2022-11-15T16:24:36;11.30;99.90
59855;DHT22;45732;52.850;6.896;2022-11-15T16:27:02;11.30;99.90
59855;DHT22;45732;52.850;6.896;2022-11-15T16:29:28;11.30;99.90
59855;DHT22;45732;52.850;6.896;2022-11-15T16:31:54;11.20;99.90
59855;DHT22;45732;52.850;6.896;2022-11-15T16:34:20;11.30;99.90
59855;DHT22;45732;52.850;6.896;2022-11-15T16:36:46;11.20;99.90
59855;DHT22;45732;52.850;6.896;2022-11-15T16:39:12;11.20;99.90
59855;DHT22;45732;52.850;6.896;2022-11-15T16:41:43;11.20;99.90
59855;DHT22;45732;52.850;6.896;2022-11-15T16:44:12;11.10;99.90
59855;DHT22;45732;52.850;6.896;2022-11-15T16:46:41;11.20;99.90
59855;DHT22;45732;52.850;6.896;2022-11-15T16:49:12;11.20;99.90
59855;DHT22;45732;52.850;6.896;2022-11-15T16:51:40;11.20;99.90
59855;DHT22;45732;52.850;6.896;2022-11-15T16:54:06;11.20;99.90
59855;DHT22;45732;52.850;6.896;2022-11-15T16:56:32;11.20;99.90
59855;DHT22;45732;52.850;6.896;2022-11-15T16:59:00;11.10;99.90
59855;DHT22;45732;52.850;6.896;2022-11-15T17:01:28;11.10;99.90
59855;DHT22;45732;52.850;6.896;2022-11-15T17:03:54;11.10;99.90
59855;DHT22;45732;52.850;6.896;2022-11-15T17:06:21;11.10;99.90
59855;DHT22;45732;52.850;6.896;2022-11-15T17:08:47;11.10;99.90
59855;DHT22;45732;52.850;6.896;2022-11-15T17:11:19;11.00;99.90
59855;DHT22;45732;52.850;6.896;2022-11-15T17:13:45;11.10;99.90
59855;DHT22;45732;52.850;6.896;2022-11-15T17:16:17;11.00;99.90
59855;DHT22;45732;52.850;6.896;2022-11-15T17:18:43;11.10;99.90
59855;DHT22;45732;52.850;6.896;2022-11-15T17:21:19;11.10;99.90
59855;DHT22;45732;52.850;6.896;2022-11-15T17:23:46;11.10;99.90
59855;DHT22;45732;52.850;6.896;2022-11-15T17:26:13;11.10;99.90
59855;DHT22;45732;52.850;6.896;2022-11-15T17:28:40;11.10;99.90
59855;DHT22;45732;52.850;6.896;2022-11-15T17:31:07;11.10;99.90
59855;DHT22;45732;52.850;6.896;2022-11-15T17:33:34;11.10;99.90
59855;DHT22;45732;52.850;6.896;2022-11-15T17:36:02;11.10;99.90
59855;DHT22;45732;52.850;6.896;2022-11-15T17:38:28;11.10;99.90
59855;DHT22;45732;52.850;6.896;2022-11-15T17:41:08;11.20;99.90
59855;DHT22;45732;52.850;6.896;2022-11-15T17:43:35;11.20;99.90
59855;DHT22;45732;52.850;6.896;2022-11-15T17:46:04;11.20;99.90
59855;DHT22;45732;52.850;6.896;2022-11-15T17:48:31;11.10;99.90